createdAt,value
2022-12-29T00:00:14.658Z,79.83
2022-12-29T00:02:43.209Z,80.20
2022-12-29T00:05:11.744Z,80.41
2022-12-29T00:07:40.248Z,80.33
2022-12-29T00:10:09.572Z,80.39
2022-12-29T00:12:56.654Z,80.28
2022-12-29T00:15:40.525Z,80.03
2022-12-29T00:18:09.644Z,80.07
2022-12-29T00:20:56.005Z,80.02
2022-12-29T00:23:41.563Z,79.87
2022-12-29T00:26:33.288Z,79.70
2022-12-29T00:29:21.690Z,78.89
2022-12-29T00:32:08.085Z,78.47
2022-12-29T00:34:53.800Z,78.89
2022-12-29T00:37:42.552Z,79.08
2022-12-29T00:40:29.015Z,78.92
2022-12-29T00:43:14.746Z,78.45
2022-12-29T00:45:44.582Z,78.16
2022-12-29T00:48:12.830Z,77.92
2022-12-29T00:50:40.094Z,77.09
2022-12-29T00:53:08.364Z,76.38
2022-12-29T00:55:39.483Z,76.26
2022-12-29T00:58:07.897Z,76.09
2022-12-29T01:00:36.272Z,75.65
2022-12-29T01:03:06.796Z,74.60
2022-12-29T01:05:38.385Z,74.51
2022-12-29T01:08:08.071Z,74.55
2022-12-29T01:10:35.329Z,74.60
2022-12-29T01:13:04.050Z,73.09
2022-12-29T01:15:32.320Z,73.53
2022-12-29T01:18:00.578Z,73.43
2022-12-29T01:20:30.260Z,74.21
2022-12-29T01:22:58.790Z,74.48
2022-12-29T01:25:27.050Z,75.16
2022-12-29T01:27:55.332Z,75.62
2022-12-29T01:30:23.619Z,76.95
2022-12-29T01:32:55.144Z,77.29
2022-12-29T01:35:23.536Z,77.78
2022-12-29T01:37:53.179Z,77.81
2022-12-29T01:40:22.926Z,77.55
2022-12-29T01:42:51.631Z,77.26
2022-12-29T01:45:20.591Z,76.94
2022-12-29T01:47:52.665Z,76.60
2022-12-29T01:50:28.454Z,77.05
2022-12-29T01:53:01.805Z,76.54
2022-12-29T01:55:33.603Z,77.07
2022-12-29T01:58:07.512Z,77.26
2022-12-29T02:00:35.868Z,77.26
2022-12-29T02:03:04.278Z,77.08
2022-12-29T02:05:40.371Z,76.54
2022-12-29T02:08:11.472Z,76.07
2022-12-29T02:10:41.764Z,75.87
2022-12-29T02:13:10.359Z,76.04
2022-12-29T02:15:52.333Z,75.95
2022-12-29T02:18:33.156Z,76.25
2022-12-29T02:21:43.367Z,76.43
2022-12-29T02:24:43.649Z,76.78
2022-12-29T02:27:33.838Z,77.18
2022-12-29T02:30:16.250Z,77.40
2022-12-29T02:32:55.243Z,77.48
2022-12-29T02:35:33.475Z,76.80
2022-12-29T02:38:16.023Z,76.40
2022-12-29T02:40:50.749Z,76.25
2022-12-29T02:43:26.793Z,76.20
2022-12-29T02:46:00.998Z,76.02
2022-12-29T02:48:35.333Z,76.08
2022-12-29T02:51:06.680Z,76.11
2022-12-29T02:53:55.326Z,76.69
2022-12-29T02:56:24.544Z,77.55
2022-12-29T02:58:53.818Z,77.96
2022-12-29T03:01:31.978Z,78.13
2022-12-29T03:04:14.327Z,78.32
2022-12-29T03:06:55.708Z,77.52
2022-12-29T03:09:33.634Z,77.58
2022-12-29T03:12:15.628Z,77.38
2022-12-29T03:15:17.901Z,76.98
2022-12-29T03:17:55.327Z,76.32
2022-12-29T03:20:28.964Z,74.90
2022-12-29T03:23:02.797Z,72.59
2022-12-29T03:25:38.809Z,71.34
2022-12-29T03:28:15.010Z,70.62
2022-12-29T03:30:48.536Z,71.53
2022-12-29T03:33:25.054Z,71.90
2022-12-29T03:35:59.833Z,72.38
2022-12-29T03:38:36.817Z,73.09
2022-12-29T03:41:10.567Z,74.47
2022-12-29T03:43:39.410Z,75.45
2022-12-29T03:46:08.343Z,75.85
2022-12-29T03:48:37.483Z,76.75
2022-12-29T03:51:08.903Z,77.25
2022-12-29T03:53:37.992Z,77.13
2022-12-29T03:56:06.487Z,76.88
2022-12-29T03:58:35.503Z,75.30
2022-12-29T04:01:13.296Z,74.58
2022-12-29T04:03:42.714Z,73.50
2022-12-29T04:06:13.339Z,73.45
2022-12-29T04:08:48.836Z,73.70
2022-12-29T04:11:17.165Z,73.82
2022-12-29T04:13:47.311Z,74.36
2022-12-29T04:16:20.176Z,74.81
2022-12-29T04:18:49.260Z,75.41
2022-12-29T04:21:19.325Z,75.42
2022-12-29T04:23:48.189Z,76.32
2022-12-29T04:26:18.244Z,77.43
2022-12-29T04:29:05.467Z,77.73
2022-12-29T04:31:51.426Z,77.47
2022-12-29T04:34:20.804Z,77.37
2022-12-29T04:36:51.790Z,76.82
2022-12-29T04:39:20.213Z,76.46
2022-12-29T04:41:48.576Z,75.70
2022-12-29T04:44:20.759Z,75.94
2022-12-29T04:47:13.624Z,76.66
2022-12-29T04:50:17.537Z,77.20
2022-12-29T04:52:57.282Z,77.05
2022-12-29T04:55:25.865Z,76.64
2022-12-29T04:57:54.208Z,76.28
2022-12-29T05:00:22.624Z,75.61
2022-12-29T05:02:51.228Z,75.36
2022-12-29T05:05:20.174Z,74.20
2022-12-29T05:07:51.611Z,74.12
2022-12-29T05:10:21.785Z,73.67
2022-12-29T05:12:53.751Z,73.57
2022-12-29T05:15:22.388Z,73.66
2022-12-29T05:17:51.743Z,73.91
2022-12-29T05:20:20.669Z,73.52
2022-12-29T05:22:49.671Z,73.96
2022-12-29T05:25:18.230Z,74.27
2022-12-29T05:28:07.036Z,74.28
2022-12-29T05:30:51.137Z,74.81
2022-12-29T05:33:21.343Z,75.49
2022-12-29T05:35:51.535Z,75.42
2022-12-29T05:38:21.082Z,75.64
2022-12-29T05:40:49.360Z,75.80
2022-12-29T05:43:39.602Z,75.79
2022-12-29T05:46:27.086Z,76.18
2022-12-29T05:49:18.923Z,76.54
2022-12-29T05:52:00.232Z,76.46
2022-12-29T05:54:30.315Z,75.82
2022-12-29T05:56:59.169Z,74.61
2022-12-29T05:59:28.866Z,73.30
2022-12-29T06:01:57.865Z,72.87
2022-12-29T06:04:26.353Z,72.11
2022-12-29T06:06:54.629Z,71.06
2022-12-29T06:09:30.646Z,71.20
2022-12-29T06:11:59.006Z,70.61
2022-12-29T06:14:29.281Z,70.85
2022-12-29T06:16:58.028Z,70.97
2022-12-29T06:19:26.561Z,70.64
2022-12-29T06:21:54.972Z,70.81
2022-12-29T06:24:24.094Z,70.85
2022-12-29T06:26:52.410Z,71.80
2022-12-29T06:29:21.714Z,72.75
2022-12-29T06:31:52.286Z,73.35
2022-12-29T06:34:20.619Z,73.53
2022-12-29T06:36:48.903Z,73.63
2022-12-29T06:39:17.207Z,73.61
2022-12-29T06:41:54.440Z,72.81
2022-12-29T06:44:42.820Z,68.82
2022-12-29T06:47:13.277Z,67.65
2022-12-29T06:49:42.036Z,67.58
2022-12-29T06:52:13.026Z,67.89
2022-12-29T06:54:42.064Z,68.32
2022-12-29T06:57:10.681Z,68.85
2022-12-29T06:59:38.920Z,69.50
2022-12-29T07:02:07.416Z,70.17
2022-12-29T07:04:37.268Z,70.66
2022-12-29T07:07:05.883Z,70.56
2022-12-29T07:09:34.333Z,71.21
2022-12-29T07:12:02.674Z,71.53
2022-12-29T07:14:32.918Z,72.13
2022-12-29T07:17:06.553Z,72.47
2022-12-29T07:19:36.807Z,72.89
2022-12-29T07:22:05.362Z,73.06
2022-12-29T07:24:33.717Z,73.41
2022-12-29T07:27:02.479Z,73.55
2022-12-29T07:29:30.712Z,73.80
2022-12-29T07:31:59.393Z,73.64
2022-12-29T07:34:27.692Z,73.72
2022-12-29T07:36:57.787Z,73.72
2022-12-29T07:39:26.125Z,72.78
2022-12-29T07:41:58.260Z,72.34
2022-12-29T07:44:38.827Z,71.88
2022-12-29T07:47:25.708Z,71.67
2022-12-29T07:49:54.051Z,71.04
2022-12-29T07:52:23.737Z,71.36
2022-12-29T07:54:52.048Z,71.41
2022-12-29T07:57:20.314Z,71.79
2022-12-29T07:59:48.536Z,71.96
2022-12-29T08:02:16.907Z,71.91
2022-12-29T08:04:45.270Z,72.01
2022-12-29T08:07:13.472Z,71.82
2022-12-29T08:09:43.145Z,71.47
2022-12-29T08:12:12.197Z,71.80
2022-12-29T08:14:40.728Z,71.75
2022-12-29T08:17:08.997Z,72.02
2022-12-29T08:19:37.334Z,72.23
2022-12-29T08:22:05.636Z,72.51
2022-12-29T08:24:33.936Z,73.09
2022-12-29T08:27:12.047Z,73.16
2022-12-29T08:29:46.186Z,73.27
2022-12-29T08:32:14.490Z,73.42
2022-12-29T08:34:43.025Z,72.94
2022-12-29T08:37:11.671Z,72.12
2022-12-29T08:39:39.988Z,71.55
2022-12-29T08:42:10.074Z,70.52
2022-12-29T08:44:38.921Z,70.12
2022-12-29T08:47:07.706Z,70.22
2022-12-29T08:49:35.974Z,69.72
2022-12-29T08:52:04.337Z,70.13
2022-12-29T08:54:32.611Z,69.72
2022-12-29T08:57:01.937Z,69.72
2022-12-29T08:59:39.463Z,70.01
2022-12-29T09:02:08.265Z,69.51
2022-12-29T09:04:37.116Z,69.65
2022-12-29T09:07:06.680Z,68.40
2022-12-29T09:09:35.510Z,68.42
2022-12-29T09:12:04.285Z,68.58
2022-12-29T09:14:32.665Z,69.32
2022-12-29T09:17:19.777Z,69.80
2022-12-29T09:19:48.102Z,70.26
2022-12-29T09:22:16.326Z,71.21
2022-12-29T09:24:44.579Z,71.57
2022-12-29T09:27:12.874Z,72.50
2022-12-29T09:29:41.566Z,73.45
2022-12-29T09:32:17.093Z,74.21
2022-12-29T09:34:46.773Z,74.78
2022-12-29T09:37:15.077Z,75.05
2022-12-29T09:39:47.747Z,74.68
2022-12-29T09:42:25.664Z,74.34
2022-12-29T09:45:11.481Z,73.69
2022-12-29T09:47:42.726Z,72.80
2022-12-29T09:50:21.615Z,72.36
2022-12-29T09:52:53.674Z,72.68
2022-12-29T09:55:25.907Z,71.53
2022-12-29T09:57:58.607Z,71.51
2022-12-29T10:00:38.675Z,71.99
2022-12-29T10:03:17.810Z,72.66
2022-12-29T10:05:52.653Z,72.96
2022-12-29T10:08:34.012Z,73.50
2022-12-29T10:11:13.630Z,73.96
2022-12-29T10:13:52.964Z,74.59
2022-12-29T10:16:28.994Z,75.85
2022-12-29T10:19:19.238Z,76.36
2022-12-29T10:22:02.396Z,75.68
2022-12-29T10:24:33.302Z,75.11
2022-12-29T10:27:02.392Z,75.31
2022-12-29T10:29:37.843Z,75.22
2022-12-29T10:32:12.427Z,75.08
2022-12-29T10:34:48.215Z,73.35
2022-12-29T10:37:27.463Z,72.49
2022-12-29T10:39:58.872Z,70.01
2022-12-29T10:42:30.417Z,68.38
2022-12-29T10:44:59.867Z,69.36
2022-12-29T10:47:32.116Z,69.47
2022-12-29T10:50:03.685Z,69.74
2022-12-29T10:52:34.632Z,70.12
2022-12-29T10:55:07.588Z,69.86
2022-12-29T10:57:40.956Z,69.90
2022-12-29T11:00:15.031Z,70.38
2022-12-29T11:03:05.331Z,70.78
2022-12-29T11:05:39.948Z,70.62
2022-12-29T11:08:15.119Z,70.84
2022-12-29T11:10:46.043Z,70.89
2022-12-29T11:13:17.350Z,70.75
2022-12-29T11:15:47.839Z,70.29
2022-12-29T11:18:25.861Z,69.85
2022-12-29T11:21:00.518Z,70.15
2022-12-29T11:23:34.728Z,70.77
2022-12-29T11:26:22.470Z,70.81
2022-12-29T11:29:16.736Z,71.42
2022-12-29T11:31:46.425Z,71.85
2022-12-29T11:34:21.133Z,71.73
2022-12-29T11:36:53.006Z,71.84
2022-12-29T11:39:33.272Z,71.32
2022-12-29T11:42:03.789Z,71.11
2022-12-29T11:44:39.681Z,71.04
2022-12-29T11:47:12.730Z,71.48
2022-12-29T11:49:41.339Z,70.74
2022-12-29T11:52:11.370Z,71.71
2022-12-29T11:54:41.023Z,71.90
2022-12-29T11:57:15.539Z,72.13
2022-12-29T11:59:45.811Z,72.72
2022-12-29T12:02:42.101Z,73.00
2022-12-29T12:05:18.637Z,73.17
2022-12-29T12:07:53.219Z,73.52
2022-12-29T12:10:30.891Z,73.82
2022-12-29T12:13:06.326Z,74.07
2022-12-29T12:15:45.903Z,74.46
2022-12-29T12:18:33.641Z,74.89
2022-12-29T12:21:10.535Z,74.75
2022-12-29T12:23:50.767Z,74.61
2022-12-29T12:26:23.191Z,75.22
2022-12-29T12:28:57.135Z,75.03
2022-12-29T12:31:47.344Z,75.59
2022-12-29T12:34:21.790Z,76.10
2022-12-29T12:37:26.099Z,76.42
2022-12-29T12:40:23.165Z,77.39
2022-12-29T12:43:10.166Z,77.82
2022-12-29T12:45:51.294Z,77.82
2022-12-29T12:48:46.367Z,78.10
2022-12-29T12:51:23.009Z,78.04
2022-12-29T12:54:04.935Z,77.48
2022-12-29T12:56:46.196Z,77.28
2022-12-29T12:59:27.871Z,77.10
2022-12-29T13:02:04.338Z,77.27
2022-12-29T13:04:57.766Z,77.56
2022-12-29T13:07:39.173Z,77.11
2022-12-29T13:10:29.518Z,77.08
2022-12-29T13:13:19.053Z,76.97
2022-12-29T13:15:58.716Z,77.27
2022-12-29T13:18:39.684Z,77.34
2022-12-29T13:21:18.378Z,77.91
2022-12-29T13:23:54.433Z,78.12
2022-12-29T13:26:29.582Z,77.88
2022-12-29T13:29:07.266Z,78.01
2022-12-29T13:31:46.926Z,77.78
2022-12-29T13:34:24.533Z,77.70
2022-12-29T13:36:58.200Z,77.64
2022-12-29T13:39:33.404Z,76.89
2022-12-29T13:42:04.769Z,76.22
2022-12-29T13:44:37.871Z,75.55
2022-12-29T13:47:15.661Z,74.56
2022-12-29T13:49:45.519Z,73.74
2022-12-29T13:52:20.815Z,73.34
2022-12-29T13:54:59.796Z,73.32
2022-12-29T13:57:42.366Z,73.24
2022-12-29T14:00:18.319Z,73.32
2022-12-29T14:03:06.812Z,74.04
2022-12-29T14:05:35.318Z,74.25
2022-12-29T14:08:06.729Z,74.71
2022-12-29T14:10:37.707Z,74.77
2022-12-29T14:13:08.908Z,75.03
2022-12-29T14:15:43.601Z,74.95
2022-12-29T14:18:19.848Z,75.10
2022-12-29T14:20:58.320Z,75.47
2022-12-29T14:23:38.455Z,75.27
2022-12-29T14:26:16.146Z,75.48
2022-12-29T14:28:45.577Z,75.44
2022-12-29T14:31:42.327Z,75.93
2022-12-29T14:34:31.575Z,75.68
2022-12-29T14:37:02.191Z,76.07
2022-12-29T14:39:39.542Z,75.53
2022-12-29T14:42:14.037Z,75.20
2022-12-29T14:44:50.941Z,75.37
2022-12-29T14:47:26.485Z,75.20
2022-12-29T14:49:56.998Z,74.64
2022-12-29T14:52:28.261Z,74.97
2022-12-29T14:55:01.598Z,74.59
2022-12-29T14:57:43.296Z,74.56
2022-12-29T15:00:24.309Z,74.67
2022-12-29T15:03:04.911Z,74.29
2022-12-29T15:05:38.998Z,74.09
2022-12-29T15:08:09.430Z,73.63
2022-12-29T15:10:44.643Z,73.43
2022-12-29T15:13:24.105Z,73.10
2022-12-29T15:15:53.955Z,73.13
2022-12-29T15:18:29.065Z,72.91
2022-12-29T15:21:00.768Z,73.15
2022-12-29T15:23:30.503Z,72.70
2022-12-29T15:26:00.847Z,72.96
2022-12-29T15:28:39.078Z,72.69
2022-12-29T15:31:13.217Z,72.65
2022-12-29T15:33:45.806Z,72.45
2022-12-29T15:36:15.708Z,72.61
2022-12-29T15:38:44.415Z,72.78
2022-12-29T15:41:28.623Z,72.71
2022-12-29T15:44:10.101Z,72.48
2022-12-29T15:46:39.077Z,72.53
2022-12-29T15:49:10.582Z,72.52
2022-12-29T15:51:41.677Z,72.71
2022-12-29T15:54:19.850Z,72.76
2022-12-29T15:56:51.024Z,73.16
2022-12-29T15:59:31.708Z,73.14
2022-12-29T16:02:04.851Z,73.33
2022-12-29T16:05:01.451Z,73.61
2022-12-29T16:07:35.760Z,73.49
2022-12-29T16:10:08.293Z,74.02
2022-12-29T16:12:39.289Z,73.77
2022-12-29T16:15:13.927Z,73.92
2022-12-29T16:17:49.517Z,74.12
2022-12-29T16:20:22.249Z,74.34
2022-12-29T16:22:52.953Z,74.07
2022-12-29T16:25:26.518Z,74.04
2022-12-29T16:27:55.237Z,74.22
2022-12-29T16:30:33.251Z,74.01
2022-12-29T16:33:03.995Z,74.03
2022-12-29T16:35:47.046Z,74.22
2022-12-29T16:38:17.979Z,74.44
2022-12-29T16:40:54.327Z,74.27
2022-12-29T16:43:25.110Z,74.31
2022-12-29T16:46:29.093Z,74.36
2022-12-29T16:48:59.845Z,74.79
2022-12-29T16:51:35.770Z,74.54
2022-12-29T16:54:05.561Z,74.71
2022-12-29T16:56:37.419Z,74.51
2022-12-29T16:59:10.409Z,74.01
2022-12-29T17:01:40.505Z,74.06
2022-12-29T17:04:12.936Z,74.29
2022-12-29T17:06:43.531Z,73.98
2022-12-29T17:09:23.199Z,73.89
2022-12-29T17:12:03.037Z,74.30
2022-12-29T17:14:43.891Z,74.35
2022-12-29T17:17:17.984Z,74.05
2022-12-29T17:19:50.366Z,74.34
2022-12-29T17:22:25.134Z,74.63
2022-12-29T17:24:54.063Z,74.52
2022-12-29T17:27:29.616Z,74.68
2022-12-29T17:30:03.502Z,74.62
2022-12-29T17:32:32.419Z,75.18
2022-12-29T17:35:00.816Z,75.23
2022-12-29T17:37:39.212Z,75.43
2022-12-29T17:40:09.805Z,75.85
2022-12-29T17:42:43.621Z,75.84
2022-12-29T17:45:17.264Z,76.07
2022-12-29T17:47:45.900Z,76.75
2022-12-29T17:50:15.949Z,76.88
2022-12-29T17:52:50.995Z,76.81
2022-12-29T17:55:22.274Z,77.04
2022-12-29T17:57:51.021Z,77.34
2022-12-29T18:00:21.231Z,77.43
2022-12-29T18:02:50.669Z,77.49
2022-12-29T18:05:21.504Z,77.30
2022-12-29T18:07:52.930Z,77.18
2022-12-29T18:10:21.730Z,77.61
2022-12-29T18:12:52.463Z,77.41
2022-12-29T18:15:24.311Z,77.68
2022-12-29T18:17:59.650Z,78.54
2022-12-29T18:20:29.310Z,78.69
2022-12-29T18:23:00.321Z,78.67
2022-12-29T18:25:44.134Z,78.79
2022-12-29T18:28:12.618Z,78.83
2022-12-29T18:30:40.814Z,78.61
2022-12-29T18:33:21.330Z,78.73
2022-12-29T18:35:54.039Z,78.68
2022-12-29T18:38:24.168Z,79.06
2022-12-29T18:40:53.792Z,78.89
2022-12-29T18:43:23.024Z,79.47
2022-12-29T18:45:52.152Z,79.19
2022-12-29T18:48:21.726Z,79.02
2022-12-29T18:50:53.326Z,79.18
2022-12-29T18:53:24.901Z,78.75
2022-12-29T18:55:54.222Z,79.08
2022-12-29T18:58:22.712Z,78.90
2022-12-29T19:00:51.429Z,78.79
2022-12-29T19:03:20.369Z,79.05
2022-12-29T19:05:50.508Z,79.04
2022-12-29T19:08:18.825Z,78.86
2022-12-29T19:10:48.744Z,78.98
2022-12-29T19:13:18.967Z,79.05
2022-12-29T19:15:47.927Z,78.83
2022-12-29T19:21:08.771Z,77.89
2022-12-29T19:23:37.031Z,77.71
2022-12-29T19:26:06.990Z,77.23
2022-12-29T19:28:35.300Z,77.02
2022-12-29T19:31:04.662Z,77.06
2022-12-29T19:33:32.891Z,76.51
2022-12-29T19:36:02.938Z,76.78
2022-12-29T19:38:31.223Z,76.33
2022-12-29T19:40:59.938Z,76.24
2022-12-29T19:43:29.875Z,76.38
2022-12-29T19:45:58.104Z,76.40
2022-12-29T19:48:26.910Z,76.53
2022-12-29T19:50:55.132Z,76.59
2022-12-29T19:53:23.419Z,76.81
2022-12-29T19:55:51.666Z,76.83
2022-12-29T19:58:20.362Z,76.97
2022-12-29T20:00:51.358Z,76.99
2022-12-29T20:03:20.353Z,77.28
2022-12-29T20:05:51.632Z,77.38
2022-12-29T20:08:19.948Z,77.43
2022-12-29T20:10:58.689Z,77.64
2022-12-29T20:13:27.144Z,77.86
2022-12-29T20:16:01.160Z,77.89
2022-12-29T20:18:29.991Z,78.14
2022-12-29T20:21:03.224Z,78.09
2022-12-29T20:23:31.576Z,78.54
2022-12-29T20:26:00.759Z,78.70
2022-12-29T20:28:29.329Z,79.17
2022-12-29T20:31:01.597Z,79.12
2022-12-29T20:33:30.495Z,79.24
2022-12-29T20:36:07.250Z,79.61
2022-12-29T20:38:35.899Z,79.84
2022-12-29T20:41:04.512Z,79.89
2022-12-29T20:43:33.086Z,79.63
2022-12-29T20:46:03.194Z,79.65
2022-12-29T20:48:32.066Z,79.04
2022-12-29T20:51:00.775Z,79.72
2022-12-29T20:53:30.354Z,79.62
2022-12-29T20:56:03.285Z,79.43
2022-12-29T20:58:31.735Z,79.65
2022-12-29T21:01:04.858Z,79.57
2022-12-29T21:03:33.611Z,80.08
2022-12-29T21:06:01.982Z,79.72
2022-12-29T21:08:33.998Z,80.04
2022-12-29T21:11:03.264Z,80.35
2022-12-29T21:13:31.749Z,80.93
2022-12-29T21:16:03.284Z,81.00
2022-12-29T21:18:32.580Z,81.24
2022-12-29T21:21:04.038Z,81.55
2022-12-29T21:23:32.756Z,81.34
2022-12-29T21:26:01.480Z,81.56
2022-12-29T21:28:30.271Z,81.25
2022-12-29T21:31:07.732Z,81.51
2022-12-29T21:33:38.303Z,81.65
2022-12-29T21:36:08.993Z,81.37
2022-12-29T21:38:37.392Z,81.75
2022-12-29T21:41:07.808Z,81.76
2022-12-29T21:43:36.499Z,81.39
2022-12-29T21:46:03.950Z,81.10
2022-12-29T21:48:32.287Z,81.11
2022-12-29T21:51:30.424Z,80.79
2022-12-29T21:54:21.653Z,80.92
2022-12-29T21:56:50.449Z,80.53
2022-12-29T21:59:36.318Z,80.87
2022-12-29T22:02:23.122Z,80.71
2022-12-29T22:05:09.224Z,80.54
2022-12-29T22:07:56.458Z,80.34
2022-12-29T22:10:41.795Z,80.30
2022-12-29T22:13:10.523Z,79.83
2022-12-29T22:15:40.274Z,79.80
2022-12-29T22:18:08.737Z,79.84
2022-12-29T22:20:38.660Z,79.74
2022-12-29T22:23:08.355Z,79.48
2022-12-29T22:25:36.652Z,79.47
2022-12-29T22:28:05.238Z,78.78
2022-12-29T22:30:34.240Z,79.07
2022-12-29T22:33:02.731Z,78.75
2022-12-29T22:35:32.208Z,78.57
2022-12-29T22:38:00.599Z,78.56
2022-12-29T22:40:30.454Z,78.80
2022-12-29T22:42:58.657Z,78.62
2022-12-29T22:45:26.890Z,78.49
2022-12-29T22:47:55.092Z,78.81
2022-12-29T22:50:23.868Z,79.21
2022-12-29T22:52:53.261Z,79.13
2022-12-29T22:55:21.515Z,79.36
2022-12-29T22:57:51.587Z,79.30
2022-12-29T23:00:19.949Z,79.78
2022-12-29T23:02:48.803Z,80.31
2022-12-29T23:05:17.437Z,80.21
2022-12-29T23:07:45.687Z,80.24
2022-12-29T23:10:14.129Z,80.22
2022-12-29T23:12:42.643Z,80.03
2022-12-29T23:15:13.641Z,80.18
2022-12-29T23:17:43.233Z,80.24
2022-12-29T23:20:12.166Z,79.82
2022-12-29T23:22:40.474Z,79.78
2022-12-29T23:25:09.634Z,80.00
2022-12-29T23:27:37.815Z,80.22
2022-12-29T23:30:07.263Z,79.74
2022-12-29T23:32:37.644Z,79.71
2022-12-29T23:35:07.041Z,79.16
2022-12-29T23:37:35.608Z,79.01
2022-12-29T23:40:03.972Z,79.43
2022-12-29T23:42:32.555Z,79.53
2022-12-29T23:45:00.772Z,79.71
2022-12-29T23:47:28.974Z,79.75
2022-12-29T23:49:58.762Z,79.87
2022-12-29T23:52:26.970Z,80.28
2022-12-29T23:54:55.195Z,80.69
2022-12-29T23:57:23.437Z,80.89
2022-12-29T23:59:51.593Z,80.74
